sensor_id;sensor_type;location;lat;lon;timestamp;temperature;humidity
10911;DHT22;5508;49.150;11.030;2023-03-31T00:02:05;6.50;99.90
10911;DHT22;5508;49.150;11.030;2023-03-31T00:05:12;6.60;99.90
10911;DHT22;5508;49.150;11.030;2023-03-31T00:08:17;6.60;99.90
10911;DHT22;5508;49.150;11.030;2023-03-31T00:11:19;6.60;99.90
10911;DHT22;5508;49.150;11.030;2023-03-31T00:14:21;6.50;99.90
10911;DHT22;5508;49.150;11.030;2023-03-31T00:17:21;6.40;99.90
10911;DHT22;5508;49.150;11.030;2023-03-31T00:20:22;6.30;99.90
10911;DHT22;5508;49.150;11.030;2023-03-31T00:23:22;6.30;99.90
10911;DHT22;5508;49.150;11.030;2023-03-31T00:26:27;6.30;99.90
10911;DHT22;5508;49.150;11.030;2023-03-31T00:29:28;6.20;99.90
10911;DHT22;5508;49.150;11.030;2023-03-31T00:32:29;6.20;99.90
10911;DHT22;5508;49.150;11.030;2023-03-31T00:35:30;6.20;99.90
10911;DHT22;5508;49.150;11.030;2023-03-31T00:38:32;6.20;99.90
10911;DHT22;5508;49.150;11.030;2023-03-31T00:41:32;6.20;99.90
10911;DHT22;5508;49.150;11.030;2023-03-31T00:44:35;6.20;99.90
10911;DHT22;5508;49.150;11.030;2023-03-31T00:47:46;6.10;99.90
10911;DHT22;5508;49.150;11.030;2023-03-31T00:50:52;6.20;99.90
10911;DHT22;5508;49.150;11.030;2023-03-31T00:53:57;6.20;99.90
10911;DHT22;5508;49.150;11.030;2023-03-31T00:57:00;6.20;99.90
10911;DHT22;5508;49.150;11.030;2023-03-31T01:00:06;6.20;99.90
10911;DHT22;5508;49.150;11.030;2023-03-31T01:03:18;6.10;99.90
10911;DHT22;5508;49.150;11.030;2023-03-31T01:06:22;6.10;99.90
10911;DHT22;5508;49.150;11.030;2023-03-31T01:09:25;6.20;99.90
10911;DHT22;5508;49.150;11.030;2023-03-31T01:12:32;6.10;99.90
10911;DHT22;5508;49.150;11.030;2023-03-31T01:15:33;6.00;99.90
10911;DHT22;5508;49.150;11.030;2023-03-31T01:18:34;6.00;99.90
10911;DHT22;5508;49.150;11.030;2023-03-31T01:28:22;6.10;99.90
10911;DHT22;5508;49.150;11.030;2023-03-31T01:47:39;6.30;99.90
10911;DHT22;5508;49.150;11.030;2023-03-31T01:53:58;6.40;99.90
10911;DHT22;5508;49.150;11.030;2023-03-31T01:57:47;6.40;99.90
10911;DHT22;5508;49.150;11.030;2023-03-31T02:00:32;6.50;99.90
10911;DHT22;5508;49.150;11.030;2023-03-31T02:03:36;6.60;99.90
10911;DHT22;5508;49.150;11.030;2023-03-31T02:06:40;6.80;99.90
10911;DHT22;5508;49.150;11.030;2023-03-31T02:09:46;6.80;99.90
10911;DHT22;5508;49.150;11.030;2023-03-31T02:12:49;6.90;99.90
10911;DHT22;5508;49.150;11.030;2023-03-31T02:15:53;7.00;99.90
10911;DHT22;5508;49.150;11.030;2023-03-31T02:18:58;7.00;99.90
10911;DHT22;5508;49.150;11.030;2023-03-31T02:22:07;7.10;99.90
10911;DHT22;5508;49.150;11.030;2023-03-31T02:25:10;7.10;99.90
10911;DHT22;5508;49.150;11.030;2023-03-31T02:28:21;7.10;99.90
10911;DHT22;5508;49.150;11.030;2023-03-31T02:34:32;7.30;99.90
10911;DHT22;5508;49.150;11.030;2023-03-31T02:37:33;7.30;99.90
10911;DHT22;5508;49.150;11.030;2023-03-31T02:40:34;7.30;99.90
10911;DHT22;5508;49.150;11.030;2023-03-31T02:43:34;7.30;99.90
10911;DHT22;5508;49.150;11.030;2023-03-31T02:46:35;7.30;99.90
10911;DHT22;5508;49.150;11.030;2023-03-31T02:49:40;7.30;99.90
10911;DHT22;5508;49.150;11.030;2023-03-31T02:53:25;7.40;99.90
10911;DHT22;5508;49.150;11.030;2023-03-31T02:59:44;7.40;99.90
10911;DHT22;5508;49.150;11.030;2023-03-31T03:09:20;7.40;99.90
10911;DHT22;5508;49.150;11.030;2023-03-31T03:13:07;7.50;99.90
10911;DHT22;5508;49.150;11.030;2023-03-31T03:16:12;7.40;99.90
10911;DHT22;5508;49.150;11.030;2023-03-31T03:19:22;7.50;99.90
10911;DHT22;5508;49.150;11.030;2023-03-31T03:22:23;7.40;99.90
10911;DHT22;5508;49.150;11.030;2023-03-31T03:25:23;7.50;99.90
10911;DHT22;5508;49.150;11.030;2023-03-31T03:28:25;7.60;99.90
10911;DHT22;5508;49.150;11.030;2023-03-31T03:31:25;7.60;99.90
10911;DHT22;5508;49.150;11.030;2023-03-31T03:34:27;7.60;99.90
10911;DHT22;5508;49.150;11.030;2023-03-31T03:37:28;7.70;99.90
10911;DHT22;5508;49.150;11.030;2023-03-31T03:40:29;7.60;99.90
10911;DHT22;5508;49.150;11.030;2023-03-31T03:43:30;7.60;99.90
10911;DHT22;5508;49.150;11.030;2023-03-31T03:46:30;7.50;99.90
10911;DHT22;5508;49.150;11.030;2023-03-31T03:49:31;7.40;99.90
10911;DHT22;5508;49.150;11.030;2023-03-31T03:52:32;7.50;99.90
10911;DHT22;5508;49.150;11.030;2023-03-31T03:55:33;7.40;99.90
10911;DHT22;5508;49.150;11.030;2023-03-31T03:58:34;7.30;99.90
10911;DHT22;5508;49.150;11.030;2023-03-31T04:01:34;7.30;99.90
10911;DHT22;5508;49.150;11.030;2023-03-31T04:04:35;7.40;99.90
10911;DHT22;5508;49.150;11.030;2023-03-31T04:07:36;7.40;99.90
10911;DHT22;5508;49.150;11.030;2023-03-31T04:10:36;7.40;99.90
10911;DHT22;5508;49.150;11.030;2023-03-31T04:13:37;7.40;99.90
10911;DHT22;5508;49.150;11.030;2023-03-31T04:16:37;7.40;99.90
10911;DHT22;5508;49.150;11.030;2023-03-31T04:19:40;7.40;99.90
10911;DHT22;5508;49.150;11.030;2023-03-31T04:22:42;7.50;99.90
10911;DHT22;5508;49.150;11.030;2023-03-31T04:25:46;7.50;99.90
10911;DHT22;5508;49.150;11.030;2023-03-31T04:28:49;7.50;99.90
10911;DHT22;5508;49.150;11.030;2023-03-31T04:31:49;7.50;99.90
10911;DHT22;5508;49.150;11.030;2023-03-31T04:34:51;7.50;99.90
10911;DHT22;5508;49.150;11.030;2023-03-31T04:38:01;7.50;99.90
10911;DHT22;5508;49.150;11.030;2023-03-31T04:41:02;7.40;99.90
10911;DHT22;5508;49.150;11.030;2023-03-31T04:44:03;7.40;99.90
10911;DHT22;5508;49.150;11.030;2023-03-31T04:47:03;7.30;99.90
10911;DHT22;5508;49.150;11.030;2023-03-31T04:50:06;7.30;99.90
10911;DHT22;5508;49.150;11.030;2023-03-31T04:53:07;7.50;99.90
10911;DHT22;5508;49.150;11.030;2023-03-31T04:56:08;7.40;99.90
10911;DHT22;5508;49.150;11.030;2023-03-31T04:59:08;7.50;99.90
10911;DHT22;5508;49.150;11.030;2023-03-31T05:02:09;7.60;99.90
10911;DHT22;5508;49.150;11.030;2023-03-31T05:05:10;7.50;99.90
10911;DHT22;5508;49.150;11.030;2023-03-31T05:08:10;7.40;99.90
10911;DHT22;5508;49.150;11.030;2023-03-31T05:11:11;7.40;99.90
10911;DHT22;5508;49.150;11.030;2023-03-31T05:14:11;7.50;99.90
10911;DHT22;5508;49.150;11.030;2023-03-31T05:17:12;7.50;99.90
10911;DHT22;5508;49.150;11.030;2023-03-31T05:20:12;7.40;99.90
10911;DHT22;5508;49.150;11.030;2023-03-31T05:23:14;7.30;99.90
10911;DHT22;5508;49.150;11.030;2023-03-31T05:26:14;7.30;99.90
10911;DHT22;5508;49.150;11.030;2023-03-31T05:29:15;7.30;99.90
10911;DHT22;5508;49.150;11.030;2023-03-31T05:32:16;7.40;99.90
10911;DHT22;5508;49.150;11.030;2023-03-31T05:35:17;7.50;99.90
10911;DHT22;5508;49.150;11.030;2023-03-31T05:38:17;7.40;99.90
10911;DHT22;5508;49.150;11.030;2023-03-31T05:41:18;7.50;99.90
10911;DHT22;5508;49.150;11.030;2023-03-31T05:44:18;7.50;99.90
10911;DHT22;5508;49.150;11.030;2023-03-31T05:47:20;7.70;99.90
10911;DHT22;5508;49.150;11.030;2023-03-31T05:50:22;7.80;99.90
10911;DHT22;5508;49.150;11.030;2023-03-31T05:53:23;7.90;99.90
10911;DHT22;5508;49.150;11.030;2023-03-31T05:56:24;8.00;99.90
10911;DHT22;5508;49.150;11.030;2023-03-31T05:59:26;8.00;99.90
10911;DHT22;5508;49.150;11.030;2023-03-31T06:02:27;7.90;99.90
10911;DHT22;5508;49.150;11.030;2023-03-31T06:05:28;8.00;99.90
10911;DHT22;5508;49.150;11.030;2023-03-31T06:08:31;8.00;99.90
10911;DHT22;5508;49.150;11.030;2023-03-31T06:11:31;8.10;99.90
10911;DHT22;5508;49.150;11.030;2023-03-31T06:14:32;8.10;99.90
10911;DHT22;5508;49.150;11.030;2023-03-31T06:17:32;8.20;99.90
10911;DHT22;5508;49.150;11.030;2023-03-31T06:20:33;8.20;99.90
10911;DHT22;5508;49.150;11.030;2023-03-31T06:23:33;8.20;99.90
10911;DHT22;5508;49.150;11.030;2023-03-31T06:26:34;8.20;99.90
10911;DHT22;5508;49.150;11.030;2023-03-31T06:29:35;8.30;99.90
10911;DHT22;5508;49.150;11.030;2023-03-31T06:32:35;8.20;99.90
10911;DHT22;5508;49.150;11.030;2023-03-31T06:35:40;8.30;99.90
10911;DHT22;5508;49.150;11.030;2023-03-31T06:38:41;8.30;99.90
10911;DHT22;5508;49.150;11.030;2023-03-31T06:41:42;8.30;99.90
10911;DHT22;5508;49.150;11.030;2023-03-31T06:44:42;8.20;99.90
10911;DHT22;5508;49.150;11.030;2023-03-31T06:47:43;8.20;99.90
10911;DHT22;5508;49.150;11.030;2023-03-31T06:50:44;8.10;99.90
10911;DHT22;5508;49.150;11.030;2023-03-31T06:53:44;8.00;99.90
10911;DHT22;5508;49.150;11.030;2023-03-31T06:56:45;8.00;99.90
10911;DHT22;5508;49.150;11.030;2023-03-31T06:59:45;7.90;99.90
10911;DHT22;5508;49.150;11.030;2023-03-31T07:02:46;7.90;99.90
10911;DHT22;5508;49.150;11.030;2023-03-31T07:05:53;7.90;99.90
10911;DHT22;5508;49.150;11.030;2023-03-31T07:08:54;7.90;99.90
10911;DHT22;5508;49.150;11.030;2023-03-31T07:11:55;7.90;99.90
10911;DHT22;5508;49.150;11.030;2023-03-31T07:14:55;7.90;99.90
10911;DHT22;5508;49.150;11.030;2023-03-31T07:17:56;7.90;99.90
10911;DHT22;5508;49.150;11.030;2023-03-31T07:21:02;7.90;99.90
10911;DHT22;5508;49.150;11.030;2023-03-31T07:24:03;7.90;99.90
10911;DHT22;5508;49.150;11.030;2023-03-31T07:27:03;7.90;99.90
10911;DHT22;5508;49.150;11.030;2023-03-31T07:30:09;7.90;99.90
10911;DHT22;5508;49.150;11.030;2023-03-31T07:33:10;7.90;99.90
10911;DHT22;5508;49.150;11.030;2023-03-31T07:36:11;7.90;99.90
10911;DHT22;5508;49.150;11.030;2023-03-31T07:39:11;7.90;99.90
10911;DHT22;5508;49.150;11.030;2023-03-31T07:42:12;8.00;99.90
10911;DHT22;5508;49.150;11.030;2023-03-31T07:45:14;8.00;99.90
10911;DHT22;5508;49.150;11.030;2023-03-31T07:48:15;8.00;99.90
10911;DHT22;5508;49.150;11.030;2023-03-31T07:51:18;8.00;99.90
10911;DHT22;5508;49.150;11.030;2023-03-31T07:54:19;8.10;99.90
10911;DHT22;5508;49.150;11.030;2023-03-31T07:57:20;8.10;99.90
10911;DHT22;5508;49.150;11.030;2023-03-31T08:00:21;8.20;99.90
10911;DHT22;5508;49.150;11.030;2023-03-31T08:03:22;8.10;99.90
10911;DHT22;5508;49.150;11.030;2023-03-31T08:06:24;8.20;99.90
10911;DHT22;5508;49.150;11.030;2023-03-31T08:09:25;8.10;99.90
10911;DHT22;5508;49.150;11.030;2023-03-31T08:12:25;8.00;99.90
10911;DHT22;5508;49.150;11.030;2023-03-31T08:15:26;8.00;99.90
10911;DHT22;5508;49.150;11.030;2023-03-31T08:18:27;8.00;99.90
10911;DHT22;5508;49.150;11.030;2023-03-31T08:21:28;8.00;99.90
10911;DHT22;5508;49.150;11.030;2023-03-31T08:24:29;8.00;99.90
10911;DHT22;5508;49.150;11.030;2023-03-31T08:27:34;8.00;99.90
10911;DHT22;5508;49.150;11.030;2023-03-31T08:30:36;8.00;99.90
10911;DHT22;5508;49.150;11.030;2023-03-31T08:33:37;8.00;99.90
10911;DHT22;5508;49.150;11.030;2023-03-31T08:36:38;8.10;99.90
10911;DHT22;5508;49.150;11.030;2023-03-31T08:39:39;8.10;99.90
10911;DHT22;5508;49.150;11.030;2023-03-31T08:42:49;8.20;99.90
10911;DHT22;5508;49.150;11.030;2023-03-31T08:45:50;8.50;99.90
10911;DHT22;5508;49.150;11.030;2023-03-31T08:48:54;8.80;99.90
10911;DHT22;5508;49.150;11.030;2023-03-31T08:52:02;9.30;99.90
10911;DHT22;5508;49.150;11.030;2023-03-31T08:55:06;9.40;99.90
10911;DHT22;5508;49.150;11.030;2023-03-31T08:58:47;9.60;99.90
10911;DHT22;5508;49.150;11.030;2023-03-31T09:01:41;9.50;99.90
10911;DHT22;5508;49.150;11.030;2023-03-31T09:08:12;9.30;99.90
10911;DHT22;5508;49.150;11.030;2023-03-31T09:11:28;9.30;99.90
10911;DHT22;5508;49.150;11.030;2023-03-31T09:14:41;9.30;99.90
10911;DHT22;5508;49.150;11.030;2023-03-31T09:17:44;9.50;99.90
10911;DHT22;5508;49.150;11.030;2023-03-31T09:20:50;9.70;99.90
10911;DHT22;5508;49.150;11.030;2023-03-31T09:23:58;9.80;99.90
10911;DHT22;5508;49.150;11.030;2023-03-31T09:27:04;9.90;99.90
10911;DHT22;5508;49.150;11.030;2023-03-31T09:30:28;9.90;99.90
10911;DHT22;5508;49.150;11.030;2023-03-31T09:33:29;10.70;99.90
10911;DHT22;5508;49.150;11.030;2023-03-31T09:36:33;11.20;99.90
10911;DHT22;5508;49.150;11.030;2023-03-31T09:39:34;11.00;99.90
10911;DHT22;5508;49.150;11.030;2023-03-31T09:42:35;11.20;99.90
10911;DHT22;5508;49.150;11.030;2023-03-31T09:45:36;11.10;99.90
10911;DHT22;5508;49.150;11.030;2023-03-31T09:48:38;11.20;99.90
10911;DHT22;5508;49.150;11.030;2023-03-31T09:51:44;11.30;99.90
10911;DHT22;5508;49.150;11.030;2023-03-31T09:54:50;11.70;99.90
10911;DHT22;5508;49.150;11.030;2023-03-31T09:57:52;11.50;97.60
10911;DHT22;5508;49.150;11.030;2023-03-31T10:01:04;11.70;95.80
10911;DHT22;5508;49.150;11.030;2023-03-31T10:04:09;11.40;96.40
10911;DHT22;5508;49.150;11.030;2023-03-31T10:07:20;11.50;94.50
10911;DHT22;5508;49.150;11.030;2023-03-31T10:10:30;11.50;93.30
10911;DHT22;5508;49.150;11.030;2023-03-31T10:13:44;11.70;89.30
10911;DHT22;5508;49.150;11.030;2023-03-31T10:16:52;11.80;90.50
10911;DHT22;5508;49.150;11.030;2023-03-31T10:19:57;11.90;91.00
10911;DHT22;5508;49.150;11.030;2023-03-31T10:23:15;12.30;90.50
10911;DHT22;5508;49.150;11.030;2023-03-31T10:26:19;12.60;88.50
10911;DHT22;5508;49.150;11.030;2023-03-31T10:29:32;12.80;86.40
10911;DHT22;5508;49.150;11.030;2023-03-31T10:32:43;12.60;84.20
10911;DHT22;5508;49.150;11.030;2023-03-31T10:35:47;12.30;82.50
10911;DHT22;5508;49.150;11.030;2023-03-31T10:38:49;12.10;82.10
10911;DHT22;5508;49.150;11.030;2023-03-31T10:41:51;12.50;80.50
10911;DHT22;5508;49.150;11.030;2023-03-31T10:45:28;13.10;78.80
10911;DHT22;5508;49.150;11.030;2023-03-31T10:48:30;13.60;77.40
10911;DHT22;5508;49.150;11.030;2023-03-31T10:51:31;13.50;75.60
10911;DHT22;5508;49.150;11.030;2023-03-31T10:54:32;13.50;74.80
10911;DHT22;5508;49.150;11.030;2023-03-31T10:57:52;13.10;75.60
10911;DHT22;5508;49.150;11.030;2023-03-31T11:07:31;13.80;76.50
10911;DHT22;5508;49.150;11.030;2023-03-31T11:21:00;14.00;70.40
10911;DHT22;5508;49.150;11.030;2023-03-31T11:34:35;13.80;65.80
10911;DHT22;5508;49.150;11.030;2023-03-31T11:41:19;14.20;64.10
10911;DHT22;5508;49.150;11.030;2023-03-31T11:44:23;14.30;59.50
10911;DHT22;5508;49.150;11.030;2023-03-31T11:47:29;14.70;61.60
10911;DHT22;5508;49.150;11.030;2023-03-31T11:50:33;14.70;62.90
10911;DHT22;5508;49.150;11.030;2023-03-31T11:53:38;15.10;58.30
10911;DHT22;5508;49.150;11.030;2023-03-31T11:56:41;15.10;58.00
10911;DHT22;5508;49.150;11.030;2023-03-31T11:59:43;15.20;58.90
10911;DHT22;5508;49.150;11.030;2023-03-31T12:03:01;15.10;54.50
10911;DHT22;5508;49.150;11.030;2023-03-31T12:06:15;14.30;58.40
10911;DHT22;5508;49.150;11.030;2023-03-31T12:09:26;13.40;59.80
10911;DHT22;5508;49.150;11.030;2023-03-31T12:12:32;13.20;62.20
10911;DHT22;5508;49.150;11.030;2023-03-31T12:15:39;13.50;60.30
10911;DHT22;5508;49.150;11.030;2023-03-31T12:18:48;13.60;64.30
10911;DHT22;5508;49.150;11.030;2023-03-31T12:25:00;13.90;58.30
10911;DHT22;5508;49.150;11.030;2023-03-31T12:28:02;14.40;62.60
10911;DHT22;5508;49.150;11.030;2023-03-31T12:31:05;14.90;57.60
10911;DHT22;5508;49.150;11.030;2023-03-31T12:34:12;15.10;57.70
10911;DHT22;5508;49.150;11.030;2023-03-31T12:37:21;15.60;59.80
10911;DHT22;5508;49.150;11.030;2023-03-31T12:40:45;16.10;56.40
10911;DHT22;5508;49.150;11.030;2023-03-31T12:54:25;14.00;59.70
10911;DHT22;5508;49.150;11.030;2023-03-31T12:57:30;13.40;64.30
10911;DHT22;5508;49.150;11.030;2023-03-31T13:00:32;12.70;72.20
10911;DHT22;5508;49.150;11.030;2023-03-31T13:13:16;7.20;99.90
10911;DHT22;5508;49.150;11.030;2023-03-31T13:16:20;7.30;99.90
10911;DHT22;5508;49.150;11.030;2023-03-31T13:19:30;7.40;99.90
10911;DHT22;5508;49.150;11.030;2023-03-31T13:22:36;7.50;99.90
10911;DHT22;5508;49.150;11.030;2023-03-31T13:29:18;7.90;99.90
10911;DHT22;5508;49.150;11.030;2023-03-31T13:32:26;8.00;99.90
10911;DHT22;5508;49.150;11.030;2023-03-31T13:35:28;8.20;99.90
10911;DHT22;5508;49.150;11.030;2023-03-31T13:45:41;9.10;99.90
10911;DHT22;5508;49.150;11.030;2023-03-31T13:52:34;9.40;99.90
10911;DHT22;5508;49.150;11.030;2023-03-31T13:59:13;9.90;99.90
10911;DHT22;5508;49.150;11.030;2023-03-31T14:09:04;10.30;97.00
10911;DHT22;5508;49.150;11.030;2023-03-31T14:12:32;10.70;94.80
10911;DHT22;5508;49.150;11.030;2023-03-31T14:15:53;10.70;89.30
10911;DHT22;5508;49.150;11.030;2023-03-31T14:19:14;10.80;90.40
10911;DHT22;5508;49.150;11.030;2023-03-31T14:35:37;11.80;87.40
10911;DHT22;5508;49.150;11.030;2023-03-31T14:38:42;11.60;85.20
10911;DHT22;5508;49.150;11.030;2023-03-31T14:41:44;11.30;87.50
10911;DHT22;5508;49.150;11.030;2023-03-31T14:44:44;11.40;89.10
10911;DHT22;5508;49.150;11.030;2023-03-31T14:48:11;11.30;87.50
10911;DHT22;5508;49.150;11.030;2023-03-31T14:51:14;11.30;85.30
10911;DHT22;5508;49.150;11.030;2023-03-31T14:54:18;11.40;85.50
10911;DHT22;5508;49.150;11.030;2023-03-31T14:57:24;11.30;83.60
10911;DHT22;5508;49.150;11.030;2023-03-31T15:00:33;11.00;85.90
10911;DHT22;5508;49.150;11.030;2023-03-31T15:03:38;10.80;87.10
10911;DHT22;5508;49.150;11.030;2023-03-31T15:06:43;10.70;88.10
10911;DHT22;5508;49.150;11.030;2023-03-31T15:09:49;10.60;86.60
10911;DHT22;5508;49.150;11.030;2023-03-31T15:12:50;10.60;87.50
10911;DHT22;5508;49.150;11.030;2023-03-31T15:15:51;10.60;88.10
10911;DHT22;5508;49.150;11.030;2023-03-31T15:18:57;10.80;88.60
10911;DHT22;5508;49.150;11.030;2023-03-31T15:22:09;10.80;87.00
10911;DHT22;5508;49.150;11.030;2023-03-31T15:25:13;10.90;87.30
10911;DHT22;5508;49.150;11.030;2023-03-31T15:28:17;10.80;85.40
10911;DHT22;5508;49.150;11.030;2023-03-31T15:31:18;10.90;84.80
10911;DHT22;5508;49.150;11.030;2023-03-31T15:34:30;10.90;85.10
10911;DHT22;5508;49.150;11.030;2023-03-31T15:37:40;11.00;84.60
10911;DHT22;5508;49.150;11.030;2023-03-31T15:40:42;11.00;83.70
10911;DHT22;5508;49.150;11.030;2023-03-31T15:43:48;11.00;82.40
10911;DHT22;5508;49.150;11.030;2023-03-31T15:47:17;11.10;80.30
10911;DHT22;5508;49.150;11.030;2023-03-31T15:50:22;11.10;80.90
10911;DHT22;5508;49.150;11.030;2023-03-31T15:53:50;11.00;81.00
10911;DHT22;5508;49.150;11.030;2023-03-31T15:56:56;10.80;80.80
10911;DHT22;5508;49.150;11.030;2023-03-31T15:59:58;10.80;82.80
10911;DHT22;5508;49.150;11.030;2023-03-31T16:03:01;10.70;81.10
10911;DHT22;5508;49.150;11.030;2023-03-31T16:06:28;10.60;79.30
10911;DHT22;5508;49.150;11.030;2023-03-31T16:15:54;10.40;78.80
10911;DHT22;5508;49.150;11.030;2023-03-31T16:19:08;10.40;80.10
10911;DHT22;5508;49.150;11.030;2023-03-31T16:22:13;10.40;80.20
10911;DHT22;5508;49.150;11.030;2023-03-31T16:25:20;10.50;77.80
10911;DHT22;5508;49.150;11.030;2023-03-31T16:28:27;10.60;78.70
10911;DHT22;5508;49.150;11.030;2023-03-31T16:31:35;10.60;76.50
10911;DHT22;5508;49.150;11.030;2023-03-31T16:34:57;10.50;76.60
10911;DHT22;5508;49.150;11.030;2023-03-31T16:37:59;10.70;76.70
10911;DHT22;5508;49.150;11.030;2023-03-31T16:41:04;10.90;74.60
10911;DHT22;5508;49.150;11.030;2023-03-31T16:44:06;10.60;76.20
10911;DHT22;5508;49.150;11.030;2023-03-31T16:47:07;10.40;76.50
10911;DHT22;5508;49.150;11.030;2023-03-31T16:50:08;10.30;78.50
10911;DHT22;5508;49.150;11.030;2023-03-31T16:53:08;10.20;76.70
10911;DHT22;5508;49.150;11.030;2023-03-31T16:56:12;10.10;76.70
10911;DHT22;5508;49.150;11.030;2023-03-31T16:59:13;10.00;78.20
10911;DHT22;5508;49.150;11.030;2023-03-31T17:02:14;9.80;78.30
10911;DHT22;5508;49.150;11.030;2023-03-31T17:05:14;9.70;80.20
10911;DHT22;5508;49.150;11.030;2023-03-31T17:08:15;9.60;79.30
10911;DHT22;5508;49.150;11.030;2023-03-31T17:11:16;9.60;78.80
10911;DHT22;5508;49.150;11.030;2023-03-31T17:14:17;9.50;80.20
10911;DHT22;5508;49.150;11.030;2023-03-31T17:17:17;9.40;79.90
10911;DHT22;5508;49.150;11.030;2023-03-31T17:20:18;9.40;81.50
10911;DHT22;5508;49.150;11.030;2023-03-31T17:23:20;9.30;81.20
10911;DHT22;5508;49.150;11.030;2023-03-31T17:26:20;9.20;82.50
10911;DHT22;5508;49.150;11.030;2023-03-31T17:29:21;9.20;81.90
10911;DHT22;5508;49.150;11.030;2023-03-31T17:32:22;9.10;81.40
10911;DHT22;5508;49.150;11.030;2023-03-31T17:35:23;9.20;81.50
10911;DHT22;5508;49.150;11.030;2023-03-31T17:38:25;9.20;81.60
10911;DHT22;5508;49.150;11.030;2023-03-31T17:41:26;9.10;83.00
10911;DHT22;5508;49.150;11.030;2023-03-31T17:44:29;9.10;84.00
10911;DHT22;5508;49.150;11.030;2023-03-31T17:47:30;9.10;83.00
10911;DHT22;5508;49.150;11.030;2023-03-31T17:50:32;9.20;82.10
10911;DHT22;5508;49.150;11.030;2023-03-31T17:53:33;9.10;83.30
10911;DHT22;5508;49.150;11.030;2023-03-31T17:56:34;9.10;82.40
10911;DHT22;5508;49.150;11.030;2023-03-31T17:59:35;9.10;82.40
10911;DHT22;5508;49.150;11.030;2023-03-31T18:02:37;9.20;82.40
10911;DHT22;5508;49.150;11.030;2023-03-31T18:05:38;9.10;84.00
10911;DHT22;5508;49.150;11.030;2023-03-31T18:08:41;9.10;83.00
10911;DHT22;5508;49.150;11.030;2023-03-31T18:11:42;9.20;81.10
10911;DHT22;5508;49.150;11.030;2023-03-31T18:14:42;9.10;81.70
10911;DHT22;5508;49.150;11.030;2023-03-31T18:17:43;9.20;82.10
10911;DHT22;5508;49.150;11.030;2023-03-31T18:20:44;9.10;82.50
10911;DHT22;5508;49.150;11.030;2023-03-31T18:23:45;9.10;81.20
10911;DHT22;5508;49.150;11.030;2023-03-31T18:26:47;9.10;81.80
10911;DHT22;5508;49.150;11.030;2023-03-31T18:29:48;9.00;81.70
10911;DHT22;5508;49.150;11.030;2023-03-31T18:32:48;9.00;82.30
10911;DHT22;5508;49.150;11.030;2023-03-31T18:35:49;9.00;82.10
10911;DHT22;5508;49.150;11.030;2023-03-31T18:38:50;8.90;82.40
10911;DHT22;5508;49.150;11.030;2023-03-31T18:41:50;8.90;82.70
10911;DHT22;5508;49.150;11.030;2023-03-31T18:44:52;8.90;83.70
10911;DHT22;5508;49.150;11.030;2023-03-31T18:47:53;8.80;83.50
10911;DHT22;5508;49.150;11.030;2023-03-31T18:50:54;8.90;83.30
10911;DHT22;5508;49.150;11.030;2023-03-31T18:53:54;8.90;83.90
10911;DHT22;5508;49.150;11.030;2023-03-31T18:56:55;8.80;83.30
10911;DHT22;5508;49.150;11.030;2023-03-31T18:59:56;8.80;84.00
10911;DHT22;5508;49.150;11.030;2023-03-31T19:02:56;8.90;83.60
10911;DHT22;5508;49.150;11.030;2023-03-31T19:06:03;8.90;83.80
10911;DHT22;5508;49.150;11.030;2023-03-31T19:09:04;9.00;82.40
10911;DHT22;5508;49.150;11.030;2023-03-31T19:12:05;8.90;82.30
10911;DHT22;5508;49.150;11.030;2023-03-31T19:15:06;9.00;82.30
10911;DHT22;5508;49.150;11.030;2023-03-31T19:18:11;9.00;82.30
10911;DHT22;5508;49.150;11.030;2023-03-31T19:21:12;8.90;83.90
10911;DHT22;5508;49.150;11.030;2023-03-31T19:24:13;8.70;90.60
10911;DHT22;5508;49.150;11.030;2023-03-31T19:27:14;8.40;94.60
10911;DHT22;5508;49.150;11.030;2023-03-31T19:30:17;8.20;96.80
10911;DHT22;5508;49.150;11.030;2023-03-31T19:33:19;8.00;97.60
10911;DHT22;5508;49.150;11.030;2023-03-31T19:36:19;7.90;98.40
10911;DHT22;5508;49.150;11.030;2023-03-31T19:39:20;7.80;97.10
10911;DHT22;5508;49.150;11.030;2023-03-31T19:42:21;7.60;99.90
10911;DHT22;5508;49.150;11.030;2023-03-31T19:45:21;7.40;99.90
10911;DHT22;5508;49.150;11.030;2023-03-31T19:48:22;7.30;99.90
10911;DHT22;5508;49.150;11.030;2023-03-31T19:51:25;7.30;99.90
10911;DHT22;5508;49.150;11.030;2023-03-31T19:54:26;7.30;99.90
10911;DHT22;5508;49.150;11.030;2023-03-31T19:57:28;7.20;99.90
10911;DHT22;5508;49.150;11.030;2023-03-31T20:00:28;7.20;99.90
10911;DHT22;5508;49.150;11.030;2023-03-31T20:03:29;7.20;99.90
10911;DHT22;5508;49.150;11.030;2023-03-31T20:06:30;7.10;99.90
10911;DHT22;5508;49.150;11.030;2023-03-31T20:09:33;7.00;99.90
10911;DHT22;5508;49.150;11.030;2023-03-31T20:12:33;7.00;99.90
10911;DHT22;5508;49.150;11.030;2023-03-31T20:15:34;6.90;99.90
10911;DHT22;5508;49.150;11.030;2023-03-31T20:18:36;6.90;99.90
10911;DHT22;5508;49.150;11.030;2023-03-31T20:21:38;6.90;99.90
10911;DHT22;5508;49.150;11.030;2023-03-31T20:24:38;6.90;99.90
10911;DHT22;5508;49.150;11.030;2023-03-31T20:27:39;6.90;99.90
10911;DHT22;5508;49.150;11.030;2023-03-31T20:30:40;7.00;99.90
10911;DHT22;5508;49.150;11.030;2023-03-31T20:33:41;6.90;99.90
10911;DHT22;5508;49.150;11.030;2023-03-31T20:36:44;6.90;99.90
10911;DHT22;5508;49.150;11.030;2023-03-31T20:39:45;6.90;99.90
10911;DHT22;5508;49.150;11.030;2023-03-31T20:42:47;6.90;99.90
10911;DHT22;5508;49.150;11.030;2023-03-31T20:45:56;6.80;99.90
10911;DHT22;5508;49.150;11.030;2023-03-31T20:49:03;6.90;99.90
10911;DHT22;5508;49.150;11.030;2023-03-31T20:52:06;6.90;99.90
10911;DHT22;5508;49.150;11.030;2023-03-31T20:55:07;6.80;99.90
10911;DHT22;5508;49.150;11.030;2023-03-31T20:58:08;6.90;99.90
10911;DHT22;5508;49.150;11.030;2023-03-31T21:01:09;6.90;99.90
10911;DHT22;5508;49.150;11.030;2023-03-31T21:04:10;6.90;99.90
10911;DHT22;5508;49.150;11.030;2023-03-31T21:07:11;6.90;99.90
10911;DHT22;5508;49.150;11.030;2023-03-31T21:10:12;6.80;99.90
10911;DHT22;5508;49.150;11.030;2023-03-31T21:13:14;6.80;99.90
10911;DHT22;5508;49.150;11.030;2023-03-31T21:16:16;6.90;99.90
10911;DHT22;5508;49.150;11.030;2023-03-31T21:19:16;6.90;99.90
10911;DHT22;5508;49.150;11.030;2023-03-31T21:22:17;6.90;99.90
10911;DHT22;5508;49.150;11.030;2023-03-31T21:25:18;7.00;99.90
10911;DHT22;5508;49.150;11.030;2023-03-31T21:28:21;7.00;99.90
10911;DHT22;5508;49.150;11.030;2023-03-31T21:31:23;7.00;99.90
10911;DHT22;5508;49.150;11.030;2023-03-31T21:34:24;7.10;99.90
10911;DHT22;5508;49.150;11.030;2023-03-31T21:37:25;7.10;99.90
10911;DHT22;5508;49.150;11.030;2023-03-31T21:40:27;7.10;99.90
10911;DHT22;5508;49.150;11.030;2023-03-31T21:43:27;7.20;99.90
10911;DHT22;5508;49.150;11.030;2023-03-31T21:46:30;7.20;99.90
10911;DHT22;5508;49.150;11.030;2023-03-31T21:49:30;7.10;99.90
10911;DHT22;5508;49.150;11.030;2023-03-31T21:52:32;7.20;99.90
10911;DHT22;5508;49.150;11.030;2023-03-31T21:55:35;7.20;99.90
10911;DHT22;5508;49.150;11.030;2023-03-31T21:58:36;7.20;99.90